sensor_id;sensor_type;location;lat;lon;timestamp;P1;durP1;ratioP1;P2;durP2;ratioP2
72406;SDS011;60396;47.550;18.828;2022-11-23T00:01:15;17.17;;;7.20;;
72406;SDS011;60396;47.550;18.828;2022-11-23T00:03:51;14.23;;;6.20;;
72406;SDS011;60396;47.550;18.828;2022-11-23T00:06:21;15.95;;;7.78;;
72406;SDS011;60396;47.550;18.828;2022-11-23T00:08:49;15.48;;;6.68;;
72406;SDS011;60396;47.550;18.828;2022-11-23T00:11:18;14.30;;;6.53;;
72406;SDS011;60396;47.550;18.828;2022-11-23T00:13:46;14.17;;;6.10;;
72406;SDS011;60396;47.550;18.828;2022-11-23T00:16:15;14.63;;;6.45;;
72406;SDS011;60396;47.550;18.828;2022-11-23T00:18:44;15.77;;;6.97;;
72406;SDS011;60396;47.550;18.828;2022-11-23T00:21:13;14.65;;;6.50;;
72406;SDS011;60396;47.550;18.828;2022-11-23T00:23:42;16.77;;;6.85;;
72406;SDS011;60396;47.550;18.828;2022-11-23T00:26:11;13.37;;;6.60;;
72406;SDS011;60396;47.550;18.828;2022-11-23T00:28:39;13.95;;;5.60;;
72406;SDS011;60396;47.550;18.828;2022-11-23T00:31:08;16.20;;;6.72;;
72406;SDS011;60396;47.550;18.828;2022-11-23T00:33:37;15.60;;;6.78;;
72406;SDS011;60396;47.550;18.828;2022-11-23T00:36:12;13.52;;;6.10;;
72406;SDS011;60396;47.550;18.828;2022-11-23T00:38:41;12.90;;;6.10;;
72406;SDS011;60396;47.550;18.828;2022-11-23T00:41:14;13.75;;;5.70;;
72406;SDS011;60396;47.550;18.828;2022-11-23T00:43:43;13.82;;;5.90;;
72406;SDS011;60396;47.550;18.828;2022-11-23T00:46:17;13.90;;;5.15;;
72406;SDS011;60396;47.550;18.828;2022-11-23T00:48:46;13.05;;;5.70;;
72406;SDS011;60396;47.550;18.828;2022-11-23T00:51:16;13.93;;;6.07;;
72406;SDS011;60396;47.550;18.828;2022-11-23T00:53:45;15.93;;;5.60;;
72406;SDS011;60396;47.550;18.828;2022-11-23T00:56:12;15.27;;;6.53;;
72406;SDS011;60396;47.550;18.828;2022-11-23T00:58:40;14.38;;;5.85;;
72406;SDS011;60396;47.550;18.828;2022-11-23T01:01:09;15.43;;;6.22;;
72406;SDS011;60396;47.550;18.828;2022-11-23T01:03:39;13.57;;;5.83;;
72406;SDS011;60396;47.550;18.828;2022-11-23T01:06:13;13.07;;;5.97;;
72406;SDS011;60396;47.550;18.828;2022-11-23T01:08:50;12.50;;;5.53;;
72406;SDS011;60396;47.550;18.828;2022-11-23T01:11:23;13.98;;;6.03;;
72406;SDS011;60396;47.550;18.828;2022-11-23T01:13:52;14.95;;;6.35;;
72406;SDS011;60396;47.550;18.828;2022-11-23T01:16:21;16.87;;;6.40;;
72406;SDS011;60396;47.550;18.828;2022-11-23T01:18:54;15.68;;;6.95;;
72406;SDS011;60396;47.550;18.828;2022-11-23T01:21:27;15.57;;;6.12;;
72406;SDS011;60396;47.550;18.828;2022-11-23T01:23:55;15.25;;;6.20;;
72406;SDS011;60396;47.550;18.828;2022-11-23T01:26:23;14.50;;;5.78;;
72406;SDS011;60396;47.550;18.828;2022-11-23T01:28:50;14.93;;;6.40;;
72406;SDS011;60396;47.550;18.828;2022-11-23T01:31:21;15.85;;;6.18;;
72406;SDS011;60396;47.550;18.828;2022-11-23T01:33:53;14.45;;;5.93;;
72406;SDS011;60396;47.550;18.828;2022-11-23T01:36:23;16.85;;;6.35;;
72406;SDS011;60396;47.550;18.828;2022-11-23T01:38:52;15.05;;;6.62;;
72406;SDS011;60396;47.550;18.828;2022-11-23T01:41:30;17.37;;;7.43;;
72406;SDS011;60396;47.550;18.828;2022-11-23T01:46:59;15.35;;;6.30;;
72406;SDS011;60396;47.550;18.828;2022-11-23T01:49:30;13.48;;;5.70;;
72406;SDS011;60396;47.550;18.828;2022-11-23T01:52:02;13.82;;;6.30;;
72406;SDS011;60396;47.550;18.828;2022-11-23T01:54:33;16.80;;;6.57;;
72406;SDS011;60396;47.550;18.828;2022-11-23T01:57:05;12.50;;;5.57;;
72406;SDS011;60396;47.550;18.828;2022-11-23T01:59:36;12.57;;;5.75;;
72406;SDS011;60396;47.550;18.828;2022-11-23T02:02:08;13.48;;;6.05;;
72406;SDS011;60396;47.550;18.828;2022-11-23T02:04:36;12.10;;;5.50;;
72406;SDS011;60396;47.550;18.828;2022-11-23T02:07:05;14.80;;;6.33;;
72406;SDS011;60396;47.550;18.828;2022-11-23T02:09:33;13.40;;;6.05;;
72406;SDS011;60396;47.550;18.828;2022-11-23T02:12:02;13.30;;;5.68;;
72406;SDS011;60396;47.550;18.828;2022-11-23T02:14:30;13.62;;;5.55;;
72406;SDS011;60396;47.550;18.828;2022-11-23T02:16:57;13.23;;;5.70;;
72406;SDS011;60396;47.550;18.828;2022-11-23T02:19:38;16.27;;;5.40;;
72406;SDS011;60396;47.550;18.828;2022-11-23T02:22:11;12.52;;;5.35;;
72406;SDS011;60396;47.550;18.828;2022-11-23T02:24:45;15.55;;;5.95;;
72406;SDS011;60396;47.550;18.828;2022-11-23T02:27:15;12.65;;;5.93;;
72406;SDS011;60396;47.550;18.828;2022-11-23T02:29:42;12.57;;;5.78;;
72406;SDS011;60396;47.550;18.828;2022-11-23T02:32:10;13.73;;;5.47;;
72406;SDS011;60396;47.550;18.828;2022-11-23T02:34:38;12.90;;;4.97;;
72406;SDS011;60396;47.550;18.828;2022-11-23T02:37:07;11.15;;;4.53;;
72406;SDS011;60396;47.550;18.828;2022-11-23T02:39:36;12.25;;;5.12;;
72406;SDS011;60396;47.550;18.828;2022-11-23T02:42:05;13.75;;;5.43;;
72406;SDS011;60396;47.550;18.828;2022-11-23T02:44:36;12.23;;;5.37;;
72406;SDS011;60396;47.550;18.828;2022-11-23T02:47:11;13.02;;;5.05;;
72406;SDS011;60396;47.550;18.828;2022-11-23T02:49:40;11.88;;;4.93;;
72406;SDS011;60396;47.550;18.828;2022-11-23T02:52:08;12.13;;;5.07;;
72406;SDS011;60396;47.550;18.828;2022-11-23T02:54:36;10.77;;;4.85;;
72406;SDS011;60396;47.550;18.828;2022-11-23T02:57:04;9.83;;;4.50;;
72406;SDS011;60396;47.550;18.828;2022-11-23T02:59:31;13.77;;;5.15;;
72406;SDS011;60396;47.550;18.828;2022-11-23T03:02:01;12.07;;;5.20;;
72406;SDS011;60396;47.550;18.828;2022-11-23T03:04:31;10.95;;;4.72;;
72406;SDS011;60396;47.550;18.828;2022-11-23T03:06:58;14.65;;;5.97;;
72406;SDS011;60396;47.550;18.828;2022-11-23T03:09:26;12.70;;;5.63;;
72406;SDS011;60396;47.550;18.828;2022-11-23T03:11:54;15.10;;;5.80;;
72406;SDS011;60396;47.550;18.828;2022-11-23T03:14:23;12.70;;;4.95;;
72406;SDS011;60396;47.550;18.828;2022-11-23T03:16:52;12.18;;;5.28;;
72406;SDS011;60396;47.550;18.828;2022-11-23T03:19:20;10.55;;;4.85;;
72406;SDS011;60396;47.550;18.828;2022-11-23T03:21:47;15.53;;;5.53;;
72406;SDS011;60396;47.550;18.828;2022-11-23T03:24:15;13.38;;;5.43;;
72406;SDS011;60396;47.550;18.828;2022-11-23T03:26:43;11.90;;;5.15;;
72406;SDS011;60396;47.550;18.828;2022-11-23T03:29:11;13.18;;;5.50;;
72406;SDS011;60396;47.550;18.828;2022-11-23T03:31:40;14.93;;;5.60;;
72406;SDS011;60396;47.550;18.828;2022-11-23T03:34:08;14.60;;;6.17;;
72406;SDS011;60396;47.550;18.828;2022-11-23T03:36:37;13.85;;;5.12;;
72406;SDS011;60396;47.550;18.828;2022-11-23T03:39:04;12.25;;;5.28;;
72406;SDS011;60396;47.550;18.828;2022-11-23T03:41:33;11.55;;;4.95;;
72406;SDS011;60396;47.550;18.828;2022-11-23T03:44:00;11.98;;;5.07;;
72406;SDS011;60396;47.550;18.828;2022-11-23T03:46:28;10.53;;;4.77;;
72406;SDS011;60396;47.550;18.828;2022-11-23T03:48:56;14.65;;;5.35;;
72406;SDS011;60396;47.550;18.828;2022-11-23T03:51:25;11.68;;;4.80;;
72406;SDS011;60396;47.550;18.828;2022-11-23T03:53:54;12.25;;;4.50;;
72406;SDS011;60396;47.550;18.828;2022-11-23T03:56:21;10.73;;;4.30;;
72406;SDS011;60396;47.550;18.828;2022-11-23T03:58:49;12.70;;;4.73;;
72406;SDS011;60396;47.550;18.828;2022-11-23T04:01:17;11.25;;;4.50;;
72406;SDS011;60396;47.550;18.828;2022-11-23T04:03:45;11.43;;;4.93;;
72406;SDS011;60396;47.550;18.828;2022-11-23T04:06:13;10.82;;;4.20;;
72406;SDS011;60396;47.550;18.828;2022-11-23T04:08:41;10.60;;;4.22;;
72406;SDS011;60396;47.550;18.828;2022-11-23T04:11:10;9.93;;;4.37;;
72406;SDS011;60396;47.550;18.828;2022-11-23T04:13:37;11.93;;;4.90;;
72406;SDS011;60396;47.550;18.828;2022-11-23T04:16:07;12.70;;;4.87;;
72406;SDS011;60396;47.550;18.828;2022-11-23T04:18:35;10.07;;;3.97;;
72406;SDS011;60396;47.550;18.828;2022-11-23T04:21:03;9.35;;;3.78;;
72406;SDS011;60396;47.550;18.828;2022-11-23T04:23:31;13.03;;;4.60;;
72406;SDS011;60396;47.550;18.828;2022-11-23T04:25:59;9.88;;;3.92;;
72406;SDS011;60396;47.550;18.828;2022-11-23T04:28:27;9.65;;;3.87;;
72406;SDS011;60396;47.550;18.828;2022-11-23T04:30:56;10.88;;;4.45;;
72406;SDS011;60396;47.550;18.828;2022-11-23T04:33:27;10.18;;;4.40;;
72406;SDS011;60396;47.550;18.828;2022-11-23T04:35:55;12.53;;;4.23;;
72406;SDS011;60396;47.550;18.828;2022-11-23T04:38:22;10.52;;;3.90;;
72406;SDS011;60396;47.550;18.828;2022-11-23T04:40:50;11.12;;;4.10;;
72406;SDS011;60396;47.550;18.828;2022-11-23T04:43:19;9.93;;;3.65;;
72406;SDS011;60396;47.550;18.828;2022-11-23T04:45:47;9.77;;;4.03;;
72406;SDS011;60396;47.550;18.828;2022-11-23T04:48:17;9.40;;;3.77;;
72406;SDS011;60396;47.550;18.828;2022-11-23T04:50:44;9.98;;;3.65;;
72406;SDS011;60396;47.550;18.828;2022-11-23T04:53:14;8.95;;;3.37;;
72406;SDS011;60396;47.550;18.828;2022-11-23T04:55:42;9.50;;;3.62;;
72406;SDS011;60396;47.550;18.828;2022-11-23T04:58:09;10.77;;;4.05;;
72406;SDS011;60396;47.550;18.828;2022-11-23T05:00:38;9.07;;;4.00;;
72406;SDS011;60396;47.550;18.828;2022-11-23T05:03:07;11.57;;;3.87;;
72406;SDS011;60396;47.550;18.828;2022-11-23T05:05:37;8.88;;;3.70;;
72406;SDS011;60396;47.550;18.828;2022-11-23T05:08:06;8.90;;;3.50;;
72406;SDS011;60396;47.550;18.828;2022-11-23T05:10:35;9.18;;;3.55;;
72406;SDS011;60396;47.550;18.828;2022-11-23T05:13:03;8.50;;;3.10;;
72406;SDS011;60396;47.550;18.828;2022-11-23T05:15:31;11.15;;;3.67;;
72406;SDS011;60396;47.550;18.828;2022-11-23T05:18:03;8.00;;;3.10;;
72406;SDS011;60396;47.550;18.828;2022-11-23T05:20:33;10.15;;;3.80;;
72406;SDS011;60396;47.550;18.828;2022-11-23T05:23:01;8.75;;;3.83;;
72406;SDS011;60396;47.550;18.828;2022-11-23T05:25:29;9.53;;;3.40;;
72406;SDS011;60396;47.550;18.828;2022-11-23T05:27:58;10.05;;;3.67;;
72406;SDS011;60396;47.550;18.828;2022-11-23T05:30:45;11.32;;;3.90;;
72406;SDS011;60396;47.550;18.828;2022-11-23T05:33:13;10.95;;;3.70;;
72406;SDS011;60396;47.550;18.828;2022-11-23T05:35:41;7.95;;;3.28;;
72406;SDS011;60396;47.550;18.828;2022-11-23T05:38:08;10.47;;;3.77;;
72406;SDS011;60396;47.550;18.828;2022-11-23T05:40:36;9.73;;;3.60;;
72406;SDS011;60396;47.550;18.828;2022-11-23T05:43:04;10.57;;;3.60;;
72406;SDS011;60396;47.550;18.828;2022-11-23T05:45:31;10.32;;;3.58;;
72406;SDS011;60396;47.550;18.828;2022-11-23T05:47:59;8.55;;;3.50;;
72406;SDS011;60396;47.550;18.828;2022-11-23T05:50:27;9.30;;;3.60;;
72406;SDS011;60396;47.550;18.828;2022-11-23T05:53:10;9.18;;;3.62;;
72406;SDS011;60396;47.550;18.828;2022-11-23T05:55:38;9.93;;;4.03;;
72406;SDS011;60396;47.550;18.828;2022-11-23T05:58:06;9.95;;;3.33;;
72406;SDS011;60396;47.550;18.828;2022-11-23T06:00:34;10.48;;;3.78;;
72406;SDS011;60396;47.550;18.828;2022-11-23T06:03:02;17.83;;;5.23;;
72406;SDS011;60396;47.550;18.828;2022-11-23T06:05:34;8.23;;;3.53;;
72406;SDS011;60396;47.550;18.828;2022-11-23T06:08:01;10.40;;;3.40;;
72406;SDS011;60396;47.550;18.828;2022-11-23T06:10:30;9.00;;;3.25;;
72406;SDS011;60396;47.550;18.828;2022-11-23T06:13:02;9.35;;;3.30;;
72406;SDS011;60396;47.550;18.828;2022-11-23T06:15:31;8.20;;;2.90;;
72406;SDS011;60396;47.550;18.828;2022-11-23T06:17:59;7.53;;;2.70;;
72406;SDS011;60396;47.550;18.828;2022-11-23T06:20:30;9.10;;;3.35;;
72406;SDS011;60396;47.550;18.828;2022-11-23T06:22:58;7.32;;;2.75;;
72406;SDS011;60396;47.550;18.828;2022-11-23T06:25:25;9.85;;;3.30;;
72406;SDS011;60396;47.550;18.828;2022-11-23T06:30:22;8.40;;;2.95;;
72406;SDS011;60396;47.550;18.828;2022-11-23T06:32:51;8.13;;;3.28;;
72406;SDS011;60396;47.550;18.828;2022-11-23T06:35:19;9.18;;;3.35;;
72406;SDS011;60396;47.550;18.828;2022-11-23T06:37:48;8.88;;;3.83;;
72406;SDS011;60396;47.550;18.828;2022-11-23T06:40:16;9.63;;;4.17;;
72406;SDS011;60396;47.550;18.828;2022-11-23T06:42:44;16.37;;;8.45;;
72406;SDS011;60396;47.550;18.828;2022-11-23T06:45:12;12.27;;;5.18;;
72406;SDS011;60396;47.550;18.828;2022-11-23T06:47:41;8.70;;;3.85;;
72406;SDS011;60396;47.550;18.828;2022-11-23T06:50:10;11.80;;;3.92;;
72406;SDS011;60396;47.550;18.828;2022-11-23T06:52:38;7.13;;;2.60;;
72406;SDS011;60396;47.550;18.828;2022-11-23T06:55:05;8.75;;;2.70;;
72406;SDS011;60396;47.550;18.828;2022-11-23T06:57:34;9.43;;;3.22;;
72406;SDS011;60396;47.550;18.828;2022-11-23T07:00:02;8.95;;;3.35;;
72406;SDS011;60396;47.550;18.828;2022-11-23T07:02:31;10.07;;;3.22;;
72406;SDS011;60396;47.550;18.828;2022-11-23T07:04:59;7.20;;;2.73;;
72406;SDS011;60396;47.550;18.828;2022-11-23T07:07:27;8.05;;;2.97;;
72406;SDS011;60396;47.550;18.828;2022-11-23T07:09:56;8.25;;;2.65;;
72406;SDS011;60396;47.550;18.828;2022-11-23T07:12:25;8.35;;;3.10;;
72406;SDS011;60396;47.550;18.828;2022-11-23T07:14:53;7.68;;;2.60;;
72406;SDS011;60396;47.550;18.828;2022-11-23T07:17:21;7.97;;;2.60;;
72406;SDS011;60396;47.550;18.828;2022-11-23T07:19:48;7.57;;;2.55;;
72406;SDS011;60396;47.550;18.828;2022-11-23T07:22:16;7.12;;;2.80;;
72406;SDS011;60396;47.550;18.828;2022-11-23T07:24:43;7.25;;;2.15;;
72406;SDS011;60396;47.550;18.828;2022-11-23T07:27:14;6.60;;;2.28;;
72406;SDS011;60396;47.550;18.828;2022-11-23T07:29:43;6.60;;;2.10;;
72406;SDS011;60396;47.550;18.828;2022-11-23T07:32:11;7.10;;;1.95;;
72406;SDS011;60396;47.550;18.828;2022-11-23T07:34:41;7.32;;;2.50;;
72406;SDS011;60396;47.550;18.828;2022-11-23T07:37:09;6.72;;;2.45;;
72406;SDS011;60396;47.550;18.828;2022-11-23T07:39:36;6.37;;;2.20;;
72406;SDS011;60396;47.550;18.828;2022-11-23T07:42:24;6.90;;;2.10;;
72406;SDS011;60396;47.550;18.828;2022-11-23T07:45:07;8.18;;;2.70;;
72406;SDS011;60396;47.550;18.828;2022-11-23T07:47:36;7.00;;;2.37;;
72406;SDS011;60396;47.550;18.828;2022-11-23T07:50:07;8.43;;;2.60;;
72406;SDS011;60396;47.550;18.828;2022-11-23T07:52:36;6.82;;;2.15;;
72406;SDS011;60396;47.550;18.828;2022-11-23T07:55:04;6.90;;;2.40;;
72406;SDS011;60396;47.550;18.828;2022-11-23T07:57:32;8.10;;;3.03;;
72406;SDS011;60396;47.550;18.828;2022-11-23T08:00:00;6.97;;;2.42;;
72406;SDS011;60396;47.550;18.828;2022-11-23T08:02:38;6.93;;;2.03;;
72406;SDS011;60396;47.550;18.828;2022-11-23T08:05:24;8.35;;;2.70;;
72406;SDS011;60396;47.550;18.828;2022-11-23T08:07:58;8.43;;;2.00;;
72406;SDS011;60396;47.550;18.828;2022-11-23T08:10:27;6.70;;;2.20;;
72406;SDS011;60396;47.550;18.828;2022-11-23T08:12:56;7.20;;;2.28;;
72406;SDS011;60396;47.550;18.828;2022-11-23T08:15:24;8.18;;;2.50;;
72406;SDS011;60396;47.550;18.828;2022-11-23T08:17:58;9.25;;;2.47;;
72406;SDS011;60396;47.550;18.828;2022-11-23T08:20:29;8.27;;;2.10;;
72406;SDS011;60396;47.550;18.828;2022-11-23T08:23:00;6.65;;;1.90;;
72406;SDS011;60396;47.550;18.828;2022-11-23T08:25:28;5.80;;;1.77;;
72406;SDS011;60396;47.550;18.828;2022-11-23T08:28:00;6.93;;;2.00;;
72406;SDS011;60396;47.550;18.828;2022-11-23T08:30:30;6.82;;;1.83;;
72406;SDS011;60396;47.550;18.828;2022-11-23T08:32:58;6.13;;;1.83;;
72406;SDS011;60396;47.550;18.828;2022-11-23T08:35:29;6.60;;;1.98;;
72406;SDS011;60396;47.550;18.828;2022-11-23T08:37:56;7.85;;;1.80;;
72406;SDS011;60396;47.550;18.828;2022-11-23T08:40:24;6.00;;;2.25;;
72406;SDS011;60396;47.550;18.828;2022-11-23T08:42:52;6.60;;;1.87;;
72406;SDS011;60396;47.550;18.828;2022-11-23T08:45:20;5.63;;;1.90;;
72406;SDS011;60396;47.550;18.828;2022-11-23T08:47:48;6.12;;;1.75;;
72406;SDS011;60396;47.550;18.828;2022-11-23T08:50:17;5.78;;;1.85;;
72406;SDS011;60396;47.550;18.828;2022-11-23T08:52:45;9.70;;;2.12;;
72406;SDS011;60396;47.550;18.828;2022-11-23T08:55:13;5.43;;;1.55;;
72406;SDS011;60396;47.550;18.828;2022-11-23T08:57:41;5.73;;;2.03;;
72406;SDS011;60396;47.550;18.828;2022-11-23T09:00:08;7.50;;;2.10;;
72406;SDS011;60396;47.550;18.828;2022-11-23T09:02:36;7.10;;;2.10;;
72406;SDS011;60396;47.550;18.828;2022-11-23T09:05:04;6.72;;;2.17;;
72406;SDS011;60396;47.550;18.828;2022-11-23T09:07:33;7.82;;;2.17;;
72406;SDS011;60396;47.550;18.828;2022-11-23T09:10:01;6.00;;;1.83;;
72406;SDS011;60396;47.550;18.828;2022-11-23T09:12:29;5.75;;;1.92;;
72406;SDS011;60396;47.550;18.828;2022-11-23T09:14:56;7.30;;;2.28;;
72406;SDS011;60396;47.550;18.828;2022-11-23T09:17:23;5.68;;;1.77;;
72406;SDS011;60396;47.550;18.828;2022-11-23T09:19:51;7.10;;;2.30;;
72406;SDS011;60396;47.550;18.828;2022-11-23T09:22:19;7.03;;;2.30;;
72406;SDS011;60396;47.550;18.828;2022-11-23T09:24:46;5.28;;;1.65;;
72406;SDS011;60396;47.550;18.828;2022-11-23T09:27:14;7.05;;;1.85;;
72406;SDS011;60396;47.550;18.828;2022-11-23T09:29:41;8.52;;;1.83;;
72406;SDS011;60396;47.550;18.828;2022-11-23T09:32:09;6.07;;;2.00;;
72406;SDS011;60396;47.550;18.828;2022-11-23T09:34:37;6.37;;;2.17;;
72406;SDS011;60396;47.550;18.828;2022-11-23T09:37:05;6.28;;;1.80;;
72406;SDS011;60396;47.550;18.828;2022-11-23T09:39:32;5.85;;;2.00;;
72406;SDS011;60396;47.550;18.828;2022-11-23T09:54:01;4.53;;;1.30;;
72406;SDS011;60396;47.550;18.828;2022-11-23T09:56:18;4.10;;;1.30;;
72406;SDS011;60396;47.550;18.828;2022-11-23T09:58:50;5.78;;;1.27;;
72406;SDS011;60396;47.550;18.828;2022-11-23T10:01:20;4.63;;;1.20;;
72406;SDS011;60396;47.550;18.828;2022-11-23T10:03:48;5.25;;;1.10;;
72406;SDS011;60396;47.550;18.828;2022-11-23T10:23:39;5.00;;;1.10;;
72406;SDS011;60396;47.550;18.828;2022-11-23T10:26:10;6.30;;;2.47;;
72406;SDS011;60396;47.550;18.828;2022-11-23T10:28:40;6.60;;;1.70;;
72406;SDS011;60396;47.550;18.828;2022-11-23T10:31:13;4.75;;;1.33;;
72406;SDS011;60396;47.550;18.828;2022-11-23T10:33:54;25.60;;;7.80;;
72406;SDS011;60396;47.550;18.828;2022-11-23T10:36:28;7.53;;;2.37;;
72406;SDS011;60396;47.550;18.828;2022-11-23T10:38:58;4.10;;;1.02;;
72406;SDS011;60396;47.550;18.828;2022-11-23T10:41:28;4.67;;;1.27;;
72406;SDS011;60396;47.550;18.828;2022-11-23T10:44:04;5.03;;;1.50;;
72406;SDS011;60396;47.550;18.828;2022-11-23T10:46:38;5.57;;;1.30;;
72406;SDS011;60396;47.550;18.828;2022-11-23T10:52:44;5.05;;;1.50;;
72406;SDS011;60396;47.550;18.828;2022-11-23T10:54:56;4.53;;;1.43;;
72406;SDS011;60396;47.550;18.828;2022-11-23T10:57:32;5.75;;;1.60;;
72406;SDS011;60396;47.550;18.828;2022-11-23T11:00:10;22.62;;;12.45;;
72406;SDS011;60396;47.550;18.828;2022-11-23T11:08:21;15.47;;;6.63;;
72406;SDS011;60396;47.550;18.828;2022-11-23T11:11:01;7.05;;;2.62;;
72406;SDS011;60396;47.550;18.828;2022-11-23T11:13:39;6.35;;;2.42;;
72406;SDS011;60396;47.550;18.828;2022-11-23T11:16:35;6.72;;;2.33;;
72406;SDS011;60396;47.550;18.828;2022-11-23T11:19:19;5.80;;;2.22;;
72406;SDS011;60396;47.550;18.828;2022-11-23T11:21:47;6.33;;;2.30;;
72406;SDS011;60396;47.550;18.828;2022-11-23T11:24:16;6.22;;;2.25;;
72406;SDS011;60396;47.550;18.828;2022-11-23T11:26:51;7.68;;;2.95;;
72406;SDS011;60396;47.550;18.828;2022-11-23T11:29:54;6.70;;;2.47;;
72406;SDS011;60396;47.550;18.828;2022-11-23T11:32:36;8.20;;;2.37;;
72406;SDS011;60396;47.550;18.828;2022-11-23T11:35:11;7.30;;;2.43;;
72406;SDS011;60396;47.550;18.828;2022-11-23T11:41:09;7.72;;;3.10;;
72406;SDS011;60396;47.550;18.828;2022-11-23T11:43:40;9.48;;;2.92;;
72406;SDS011;60396;47.550;18.828;2022-11-23T11:46:15;7.15;;;2.60;;
72406;SDS011;60396;47.550;18.828;2022-11-23T11:54:42;6.07;;;2.35;;
72406;SDS011;60396;47.550;18.828;2022-11-23T11:57:20;7.20;;;2.70;;
72406;SDS011;60396;47.550;18.828;2022-11-23T11:59:50;5.28;;;2.05;;
72406;SDS011;60396;47.550;18.828;2022-11-23T12:07:48;8.68;;;2.92;;
72406;SDS011;60396;47.550;18.828;2022-11-23T12:10:27;7.43;;;2.95;;
72406;SDS011;60396;47.550;18.828;2022-11-23T12:12:59;8.25;;;3.92;;
72406;SDS011;60396;47.550;18.828;2022-11-23T12:15:27;14.00;;;5.70;;
72406;SDS011;60396;47.550;18.828;2022-11-23T12:21:04;9.10;;;3.53;;
72406;SDS011;60396;47.550;18.828;2022-11-23T12:31:47;10.18;;;3.90;;
72406;SDS011;60396;47.550;18.828;2022-11-23T12:34:35;10.02;;;3.90;;
72406;SDS011;60396;47.550;18.828;2022-11-23T12:43:09;9.97;;;3.30;;
72406;SDS011;60396;47.550;18.828;2022-11-23T12:59:14;9.38;;;3.60;;
72406;SDS011;60396;47.550;18.828;2022-11-23T13:01:56;11.20;;;4.72;;
72406;SDS011;60396;47.550;18.828;2022-11-23T13:10:29;10.37;;;3.90;;
72406;SDS011;60396;47.550;18.828;2022-11-23T13:15:48;12.20;;;5.05;;
72406;SDS011;60396;47.550;18.828;2022-11-23T13:20:58;19.77;;;9.18;;
72406;SDS011;60396;47.550;18.828;2022-11-23T13:23:38;18.83;;;7.00;;
72406;SDS011;60396;47.550;18.828;2022-11-23T13:28:50;13.20;;;5.90;;
72406;SDS011;60396;47.550;18.828;2022-11-23T13:31:21;19.08;;;7.80;;
72406;SDS011;60396;47.550;18.828;2022-11-23T13:33:52;16.12;;;7.72;;
72406;SDS011;60396;47.550;18.828;2022-11-23T13:42:14;9.82;;;3.97;;
72406;SDS011;60396;47.550;18.828;2022-11-23T13:44:42;10.38;;;4.15;;
72406;SDS011;60396;47.550;18.828;2022-11-23T13:57:20;8.88;;;4.10;;
72406;SDS011;60396;47.550;18.828;2022-11-23T13:59:48;9.88;;;4.20;;
72406;SDS011;60396;47.550;18.828;2022-11-23T14:04:44;9.35;;;3.62;;
72406;SDS011;60396;47.550;18.828;2022-11-23T14:09:56;11.05;;;4.35;;
72406;SDS011;60396;47.550;18.828;2022-11-23T14:12:37;9.25;;;4.68;;
72406;SDS011;60396;47.550;18.828;2022-11-23T14:15:24;34.67;;;20.03;;
72406;SDS011;60396;47.550;18.828;2022-11-23T14:20:48;36.42;;;20.17;;
72406;SDS011;60396;47.550;18.828;2022-11-23T14:26:14;16.92;;;8.55;;
72406;SDS011;60396;47.550;18.828;2022-11-23T14:40:28;10.85;;;3.87;;
72406;SDS011;60396;47.550;18.828;2022-11-23T14:42:57;18.10;;;6.73;;
72406;SDS011;60396;47.550;18.828;2022-11-23T14:45:27;14.90;;;5.70;;
72406;SDS011;60396;47.550;18.828;2022-11-23T14:47:56;18.08;;;8.32;;
72406;SDS011;60396;47.550;18.828;2022-11-23T14:50:25;30.50;;;12.48;;
72406;SDS011;60396;47.550;18.828;2022-11-23T14:52:56;22.65;;;10.57;;
72406;SDS011;60396;47.550;18.828;2022-11-23T14:55:26;18.87;;;8.40;;
72406;SDS011;60396;47.550;18.828;2022-11-23T14:58:01;21.15;;;8.18;;
72406;SDS011;60396;47.550;18.828;2022-11-23T15:00:32;17.42;;;8.25;;
72406;SDS011;60396;47.550;18.828;2022-11-23T15:03:07;14.65;;;7.47;;
72406;SDS011;60396;47.550;18.828;2022-11-23T15:06:07;12.93;;;6.40;;
72406;SDS011;60396;47.550;18.828;2022-11-23T15:12:46;10.77;;;5.07;;
72406;SDS011;60396;47.550;18.828;2022-11-23T15:14:55;14.65;;;5.30;;
72406;SDS011;60396;47.550;18.828;2022-11-23T15:17:24;12.55;;;5.40;;
72406;SDS011;60396;47.550;18.828;2022-11-23T15:19:56;12.13;;;6.03;;
72406;SDS011;60396;47.550;18.828;2022-11-23T15:22:25;11.53;;;5.80;;
72406;SDS011;60396;47.550;18.828;2022-11-23T15:24:54;12.32;;;6.50;;
72406;SDS011;60396;47.550;18.828;2022-11-23T15:27:33;14.32;;;6.35;;
72406;SDS011;60396;47.550;18.828;2022-11-23T15:32:56;12.68;;;5.95;;
72406;SDS011;60396;47.550;18.828;2022-11-23T15:35:34;12.13;;;6.17;;
72406;SDS011;60396;47.550;18.828;2022-11-23T15:38:05;12.25;;;6.30;;
72406;SDS011;60396;47.550;18.828;2022-11-23T15:40:37;15.18;;;8.60;;
72406;SDS011;60396;47.550;18.828;2022-11-23T15:43:11;21.23;;;10.07;;
72406;SDS011;60396;47.550;18.828;2022-11-23T15:48:29;23.83;;;12.57;;
72406;SDS011;60396;47.550;18.828;2022-11-23T15:51:03;18.00;;;9.35;;
72406;SDS011;60396;47.550;18.828;2022-11-23T15:53:49;15.32;;;8.70;;
72406;SDS011;60396;47.550;18.828;2022-11-23T15:58:45;13.68;;;6.90;;
72406;SDS011;60396;47.550;18.828;2022-11-23T16:01:14;15.83;;;7.03;;
72406;SDS011;60396;47.550;18.828;2022-11-23T16:06:22;16.30;;;7.90;;
72406;SDS011;60396;47.550;18.828;2022-11-23T16:08:52;15.68;;;9.07;;
72406;SDS011;60396;47.550;18.828;2022-11-23T16:11:20;14.80;;;8.00;;
72406;SDS011;60396;47.550;18.828;2022-11-23T16:13:48;17.47;;;9.37;;
72406;SDS011;60396;47.550;18.828;2022-11-23T16:16:17;21.85;;;14.10;;
72406;SDS011;60396;47.550;18.828;2022-11-23T16:18:48;22.83;;;13.07;;
72406;SDS011;60396;47.550;18.828;2022-11-23T16:21:18;16.33;;;9.00;;
72406;SDS011;60396;47.550;18.828;2022-11-23T16:23:48;14.55;;;7.12;;
72406;SDS011;60396;47.550;18.828;2022-11-23T16:26:17;12.20;;;6.33;;
72406;SDS011;60396;47.550;18.828;2022-11-23T16:28:49;12.68;;;6.65;;
72406;SDS011;60396;47.550;18.828;2022-11-23T16:34:08;15.63;;;7.28;;
72406;SDS011;60396;47.550;18.828;2022-11-23T16:36:38;14.85;;;7.05;;
72406;SDS011;60396;47.550;18.828;2022-11-23T16:39:06;15.63;;;8.40;;
72406;SDS011;60396;47.550;18.828;2022-11-23T16:41:34;14.52;;;6.53;;
72406;SDS011;60396;47.550;18.828;2022-11-23T16:44:01;13.02;;;6.18;;
72406;SDS011;60396;47.550;18.828;2022-11-23T16:46:33;15.23;;;6.97;;
72406;SDS011;60396;47.550;18.828;2022-11-23T16:49:12;12.73;;;6.47;;
72406;SDS011;60396;47.550;18.828;2022-11-23T16:51:44;14.03;;;6.50;;
72406;SDS011;60396;47.550;18.828;2022-11-23T16:54:22;12.48;;;6.37;;
72406;SDS011;60396;47.550;18.828;2022-11-23T16:56:52;14.45;;;7.60;;
72406;SDS011;60396;47.550;18.828;2022-11-23T16:59:19;19.02;;;7.22;;
72406;SDS011;60396;47.550;18.828;2022-11-23T17:01:48;16.62;;;7.40;;
72406;SDS011;60396;47.550;18.828;2022-11-23T17:04:23;14.93;;;7.63;;
72406;SDS011;60396;47.550;18.828;2022-11-23T17:06:51;16.48;;;8.05;;
72406;SDS011;60396;47.550;18.828;2022-11-23T17:09:19;17.30;;;8.40;;
72406;SDS011;60396;47.550;18.828;2022-11-23T17:11:47;16.45;;;8.07;;
72406;SDS011;60396;47.550;18.828;2022-11-23T17:14:17;16.52;;;8.25;;
72406;SDS011;60396;47.550;18.828;2022-11-23T17:16:47;19.07;;;7.30;;
72406;SDS011;60396;47.550;18.828;2022-11-23T17:19:16;15.13;;;7.30;;
72406;SDS011;60396;47.550;18.828;2022-11-23T17:21:44;14.95;;;7.10;;
72406;SDS011;60396;47.550;18.828;2022-11-23T17:24:12;15.68;;;7.28;;